sensor_id;sensor_type;location;lat;lon;timestamp;pressure;altitude;pressure_sealevel;temperature;humidity
3590;BME280;1809;48.470;9.226;2023-04-28T00:00:24;-16520.81;;;12.63;100.00
3590;BME280;1809;48.470;9.226;2023-04-28T00:02:50;-16524.88;;;12.77;100.00
3590;BME280;1809;48.470;9.226;2023-04-28T00:05:16;-16526.00;;;12.81;100.00
3590;BME280;1809;48.470;9.226;2023-04-28T00:07:41;-16525.88;;;12.81;100.00
3590;BME280;1809;48.470;9.226;2023-04-28T00:10:07;-16526.28;;;12.82;100.00
3590;BME280;1809;48.470;9.226;2023-04-28T00:12:33;-16529.25;;;12.93;100.00
3590;BME280;1809;48.470;9.226;2023-04-28T00:14:58;-16530.22;;;12.97;100.00
3590;BME280;1809;48.470;9.226;2023-04-28T00:17:23;-16529.94;;;12.95;100.00
3590;BME280;1809;48.470;9.226;2023-04-28T00:19:49;-16528.41;;;12.90;100.00
3590;BME280;1809;48.470;9.226;2023-04-28T00:22:14;-16528.97;;;12.92;100.00
3590;BME280;1809;48.470;9.226;2023-04-28T00:24:40;-16528.13;;;12.89;100.00
3590;BME280;1809;48.470;9.226;2023-04-28T00:27:06;-16527.69;;;12.87;100.00
3590;BME280;1809;48.470;9.226;2023-04-28T00:29:31;-16528.53;;;12.90;100.00
3590;BME280;1809;48.470;9.226;2023-04-28T00:31:56;-16528.25;;;12.89;100.00
3590;BME280;1809;48.470;9.226;2023-04-28T00:34:22;-16528.81;;;12.91;100.00
3590;BME280;1809;48.470;9.226;2023-04-28T00:36:47;-16526.28;;;12.82;100.00
3590;BME280;1809;48.470;9.226;2023-04-28T00:39:12;-16526.84;;;12.84;100.00
3590;BME280;1809;48.470;9.226;2023-04-28T00:41:38;-16524.31;;;12.75;100.00
3590;BME280;1809;48.470;9.226;2023-04-28T00:44:04;-16522.38;;;12.68;100.00
3590;BME280;1809;48.470;9.226;2023-04-28T00:46:30;-16523.91;;;12.74;100.00
3590;BME280;1809;48.470;9.226;2023-04-28T00:48:57;-16527.13;;;12.85;100.00
3590;BME280;1809;48.470;9.226;2023-04-28T00:51:22;-16533.88;;;13.10;100.00
3590;BME280;1809;48.470;9.226;2023-04-28T00:53:49;-16533.31;;;13.08;100.00
3590;BME280;1809;48.470;9.226;2023-04-28T00:56:14;-16534.28;;;13.11;100.00
3590;BME280;1809;48.470;9.226;2023-04-28T00:58:40;-16537.53;;;13.23;100.00
3590;BME280;1809;48.470;9.226;2023-04-28T01:01:07;-16535.69;;;13.16;100.00
3590;BME280;1809;48.470;9.226;2023-04-28T01:03:34;-16539.47;;;13.30;100.00
3590;BME280;1809;48.470;9.226;2023-04-28T01:06:05;-16539.63;;;13.30;100.00
3590;BME280;1809;48.470;9.226;2023-04-28T01:08:31;-16539.75;;;13.31;100.00
3590;BME280;1809;48.470;9.226;2023-04-28T01:10:57;-16536.97;;;13.21;100.00
3590;BME280;1809;48.470;9.226;2023-04-28T01:13:23;-16535.56;;;13.16;100.00
3590;BME280;1809;48.470;9.226;2023-04-28T01:15:48;-16535.00;;;13.14;100.00
3590;BME280;1809;48.470;9.226;2023-04-28T01:18:14;-16529.38;;;12.93;100.00
3590;BME280;1809;48.470;9.226;2023-04-28T01:20:40;-16530.91;;;12.99;100.00
3590;BME280;1809;48.470;9.226;2023-04-28T01:23:11;-16533.03;;;13.07;100.00
3590;BME280;1809;48.470;9.226;2023-04-28T01:25:37;-16533.31;;;13.08;100.00
3590;BME280;1809;48.470;9.226;2023-04-28T01:28:02;-16533.59;;;13.09;100.00
3590;BME280;1809;48.470;9.226;2023-04-28T01:30:27;-16533.03;;;13.07;100.00
3590;BME280;1809;48.470;9.226;2023-04-28T01:32:52;-16531.91;;;13.03;100.00
3590;BME280;1809;48.470;9.226;2023-04-28T01:35:18;-16529.38;;;12.93;100.00
3590;BME280;1809;48.470;9.226;2023-04-28T01:37:46;-16529.09;;;12.92;100.00
3590;BME280;1809;48.470;9.226;2023-04-28T01:40:11;-16528.81;;;12.91;100.00
3590;BME280;1809;48.470;9.226;2023-04-28T01:42:37;-16526.72;;;12.84;100.00
3590;BME280;1809;48.470;9.226;2023-04-28T01:45:02;-16526.00;;;12.81;100.00
3590;BME280;1809;48.470;9.226;2023-04-28T01:47:29;-16525.16;;;12.78;100.00
3590;BME280;1809;48.470;9.226;2023-04-28T01:49:55;-16522.22;;;12.68;100.00
3590;BME280;1809;48.470;9.226;2023-04-28T01:52:20;-16522.66;;;12.69;100.00
3590;BME280;1809;48.470;9.226;2023-04-28T01:58:09;-16520.97;;;12.63;100.00
3590;BME280;1809;48.470;9.226;2023-04-28T02:00:35;-16519.69;;;12.59;100.00
3590;BME280;1809;48.470;9.226;2023-04-28T02:03:00;-16517.72;;;12.52;100.00
3590;BME280;1809;48.470;9.226;2023-04-28T02:05:26;-16521.09;;;12.64;100.00
3590;BME280;1809;48.470;9.226;2023-04-28T02:07:51;-16524.31;;;12.75;100.00
3590;BME280;1809;48.470;9.226;2023-04-28T02:10:16;-16526.84;;;12.84;100.00
3590;BME280;1809;48.470;9.226;2023-04-28T02:12:41;-16528.97;;;12.92;100.00
3590;BME280;1809;48.470;9.226;2023-04-28T02:15:07;-16525.72;;;12.80;100.00
3590;BME280;1809;48.470;9.226;2023-04-28T02:17:33;-16526.84;;;12.84;100.00
3590;BME280;1809;48.470;9.226;2023-04-28T02:19:58;-16528.53;;;12.90;100.00
3590;BME280;1809;48.470;9.226;2023-04-28T02:22:23;-16531.91;;;13.03;100.00
3590;BME280;1809;48.470;9.226;2023-04-28T02:24:49;-16532.75;;;13.06;100.00
3590;BME280;1809;48.470;9.226;2023-04-28T02:27:15;-16532.75;;;13.06;100.00
3590;BME280;1809;48.470;9.226;2023-04-28T02:29:40;-16532.47;;;13.05;100.00
3590;BME280;1809;48.470;9.226;2023-04-28T02:32:06;-16532.47;;;13.05;100.00
3590;BME280;1809;48.470;9.226;2023-04-28T02:34:32;-16537.53;;;13.23;100.00
3590;BME280;1809;48.470;9.226;2023-04-28T02:36:57;-16539.75;;;13.31;100.00
3590;BME280;1809;48.470;9.226;2023-04-28T02:39:23;-16540.47;;;13.33;100.00
3590;BME280;1809;48.470;9.226;2023-04-28T02:41:54;-16544.53;;;13.48;100.00
3590;BME280;1809;48.470;9.226;2023-04-28T02:44:20;-16547.34;;;13.58;100.00
3590;BME280;1809;48.470;9.226;2023-04-28T02:46:45;-16549.88;;;13.67;100.00
3590;BME280;1809;48.470;9.226;2023-04-28T02:49:10;-16551.81;;;13.74;100.00
3590;BME280;1809;48.470;9.226;2023-04-28T02:51:36;-16553.38;;;13.80;100.00
3590;BME280;1809;48.470;9.226;2023-04-28T02:54:01;-16556.72;;;13.92;100.00
3590;BME280;1809;48.470;9.226;2023-04-28T02:56:27;-16557.44;;;13.94;100.00
3590;BME280;1809;48.470;9.226;2023-04-28T02:58:54;-16558.28;;;13.97;100.00
3590;BME280;1809;48.470;9.226;2023-04-28T03:01:19;-16555.47;;;13.87;100.00
3590;BME280;1809;48.470;9.226;2023-04-28T03:03:44;-16553.38;;;13.80;100.00
3590;BME280;1809;48.470;9.226;2023-04-28T03:06:10;-16551.81;;;13.74;100.00
3590;BME280;1809;48.470;9.226;2023-04-28T03:08:35;-16552.94;;;13.78;100.00
3590;BME280;1809;48.470;9.226;2023-04-28T03:11:00;-16551.97;;;13.75;100.00
3590;BME280;1809;48.470;9.226;2023-04-28T03:13:26;-16554.34;;;13.83;100.00
3590;BME280;1809;48.470;9.226;2023-04-28T03:15:51;-16554.34;;;13.83;100.00
3590;BME280;1809;48.470;9.226;2023-04-28T03:18:17;-16554.50;;;13.84;100.00
3590;BME280;1809;48.470;9.226;2023-04-28T03:20:43;-16555.63;;;13.88;100.00
3590;BME280;1809;48.470;9.226;2023-04-28T03:23:08;-16557.56;;;13.95;100.00
3590;BME280;1809;48.470;9.226;2023-04-28T03:25:33;-16556.03;;;13.89;100.00
3590;BME280;1809;48.470;9.226;2023-04-28T03:27:59;-16555.19;;;13.86;100.00
3590;BME280;1809;48.470;9.226;2023-04-28T03:30:24;-16554.78;;;13.85;100.00
3590;BME280;1809;48.470;9.226;2023-04-28T03:32:49;-16554.50;;;13.84;100.00
3590;BME280;1809;48.470;9.226;2023-04-28T03:35:17;-16551.53;;;13.73;100.00
3590;BME280;1809;48.470;9.226;2023-04-28T03:37:43;-16547.06;;;13.57;100.00
3590;BME280;1809;48.470;9.226;2023-04-28T03:40:09;-16540.59;;;13.34;100.00
3590;BME280;1809;48.470;9.226;2023-04-28T03:42:34;-16536.97;;;13.21;100.00
3590;BME280;1809;48.470;9.226;2023-04-28T03:45:00;-16533.03;;;13.07;100.00
3590;BME280;1809;48.470;9.226;2023-04-28T03:47:25;-16527.97;;;12.88;100.00
3590;BME280;1809;48.470;9.226;2023-04-28T03:49:50;-16523.63;;;12.73;100.00
3590;BME280;1809;48.470;9.226;2023-04-28T03:52:16;-16522.38;;;12.68;100.00
3590;BME280;1809;48.470;9.226;2023-04-28T03:54:41;-16517.03;;;12.49;100.00
3590;BME280;1809;48.470;9.226;2023-04-28T03:57:07;-16513.94;;;12.38;100.00
3590;BME280;1809;48.470;9.226;2023-04-28T03:59:32;-16509.44;;;12.22;100.00
3590;BME280;1809;48.470;9.226;2023-04-28T04:01:57;-16504.81;;;12.05;100.00
3590;BME280;1809;48.470;9.226;2023-04-28T04:04:23;8800.50;;;12.04;100.00
3590;BME280;1809;48.470;9.226;2023-04-28T04:06:48;14821.94;;;11.98;100.00
3590;BME280;1809;48.470;9.226;2023-04-28T04:09:13;12477.91;;;11.94;100.00
3590;BME280;1809;48.470;9.226;2023-04-28T04:11:44;14485.63;;;11.92;100.00
3590;BME280;1809;48.470;9.226;2023-04-28T04:14:10;32282.28;;;12.01;100.00
3590;BME280;1809;48.470;9.226;2023-04-28T04:16:35;34982.41;;;12.11;100.00
3590;BME280;1809;48.470;9.226;2023-04-28T04:19:03;35988.59;;;12.03;100.00
3590;BME280;1809;48.470;9.226;2023-04-28T04:21:29;38683.44;;;11.99;100.00
3590;BME280;1809;48.470;9.226;2023-04-28T04:23:55;49155.78;;;11.99;100.00
3590;BME280;1809;48.470;9.226;2023-04-28T04:26:21;58642.84;;;12.00;100.00
3590;BME280;1809;48.470;9.226;2023-04-28T04:28:46;60343.63;;;12.04;100.00
3590;BME280;1809;48.470;9.226;2023-04-28T04:31:11;58328.19;;;12.26;100.00
3590;BME280;1809;48.470;9.226;2023-04-28T04:33:37;62073.66;;;12.36;100.00
3590;BME280;1809;48.470;9.226;2023-04-28T04:36:03;67882.09;;;12.60;100.00
3590;BME280;1809;48.470;9.226;2023-04-28T04:38:29;65510.88;;;12.71;100.00
3590;BME280;1809;48.470;9.226;2023-04-28T04:40:55;75740.13;;;12.74;100.00
3590;BME280;1809;48.470;9.226;2023-04-28T04:43:20;88739.91;;;12.75;100.00
3590;BME280;1809;48.470;9.226;2023-04-28T04:45:45;98703.72;;;12.82;100.00
3590;BME280;1809;48.470;9.226;2023-04-28T04:48:11;105909.38;;;12.71;100.00
3590;BME280;1809;48.470;9.226;2023-04-28T04:50:36;111769.47;;;12.71;100.00
3590;BME280;1809;48.470;9.226;2023-04-28T04:53:01;116595.38;;;12.68;100.00
3590;BME280;1809;48.470;9.226;2023-04-28T04:55:27;119696.56;;;12.63;100.00
3590;BME280;1809;48.470;9.226;2023-04-28T04:57:53;122103.09;;;12.56;100.00
3590;BME280;1809;48.470;9.226;2023-04-28T05:00:19;123826.81;;;12.53;100.00
3590;BME280;1809;48.470;9.226;2023-04-28T05:02:44;125213.28;;;12.54;100.00
3590;BME280;1809;48.470;9.226;2023-04-28T05:05:09;125897.38;;;12.50;100.00
3590;BME280;1809;48.470;9.226;2023-04-28T05:07:35;126923.66;;;12.44;100.00
3590;BME280;1809;48.470;9.226;2023-04-28T05:10:00;127248.97;;;12.34;100.00
3590;BME280;1809;48.470;9.226;2023-04-28T05:12:26;128297.44;;;12.38;100.00
3590;BME280;1809;48.470;9.226;2023-04-28T05:14:51;128993.47;;;12.40;100.00
3590;BME280;1809;48.470;9.226;2023-04-28T05:17:16;129004.13;;;12.45;100.00
3590;BME280;1809;48.470;9.226;2023-04-28T05:19:42;128981.75;;;12.34;100.00
3590;BME280;1809;48.470;9.226;2023-04-28T05:22:07;130364.53;;;12.33;100.00
3590;BME280;1809;48.470;9.226;2023-04-28T05:24:32;131742.38;;;12.29;100.00
3590;BME280;1809;48.470;9.226;2023-04-28T05:26:58;133122.75;;;12.26;100.00
3590;BME280;1809;48.470;9.226;2023-04-28T05:29:24;133836.28;;;12.35;100.00
3590;BME280;1809;48.470;9.226;2023-04-28T05:31:49;133811.97;;;12.24;100.00
3590;BME280;1809;48.470;9.226;2023-04-28T05:34:15;134870.50;;;12.32;100.00
3590;BME280;1809;48.470;9.226;2023-04-28T05:36:40;134857.13;;;12.26;100.00
3590;BME280;1809;48.470;9.226;2023-04-28T05:39:06;135216.38;;;12.31;100.00
3590;BME280;1809;48.470;9.226;2023-04-28T05:41:31;135543.28;;;12.22;100.00
3590;BME280;1809;48.470;9.226;2023-04-28T05:43:57;135190.72;;;12.20;100.00
3590;BME280;1809;48.470;9.226;2023-04-28T05:46:22;135860.00;;;12.09;100.00
3590;BME280;1809;48.470;9.226;2023-04-28T05:48:47;136554.00;;;12.09;100.00
3590;BME280;1809;48.470;9.226;2023-04-28T05:51:13;137230.00;;;12.01;100.00
3590;BME280;1809;48.470;9.226;2023-04-28T05:53:38;138273.63;;;12.02;100.00
3590;BME280;1809;48.470;9.226;2023-04-28T05:56:04;139674.03;;;12.07;100.00
3590;BME280;1809;48.470;9.226;2023-04-28T05:58:29;140734.78;;;12.15;100.00
3590;BME280;1809;48.470;9.226;2023-04-28T06:00:55;141056.63;;;12.04;100.00
3590;BME280;1809;48.470;9.226;2023-04-28T06:03:21;142100.28;;;12.04;100.00
3590;BME280;1809;48.470;9.226;2023-04-28T06:05:46;142444.28;;;12.03;100.00
3590;BME280;1809;48.470;9.226;2023-04-28T06:08:11;142800.16;;;12.06;100.00
3590;BME280;1809;48.470;9.226;2023-04-28T06:10:36;143171.50;;;12.16;100.00
3590;BME280;1809;48.470;9.226;2023-04-28T06:13:02;142836.78;;;12.22;100.00
3590;BME280;1809;48.470;9.226;2023-04-28T06:15:29;142484.38;;;12.20;100.00
3590;BME280;1809;48.470;9.226;2023-04-28T06:17:54;142492.63;;;12.23;100.00
3590;BME280;1809;48.470;9.226;2023-04-28T06:20:20;142847.41;;;12.26;100.00
3590;BME280;1809;48.470;9.226;2023-04-28T06:22:45;142853.31;;;12.29;100.00
3590;BME280;1809;48.470;9.226;2023-04-28T06:25:10;141814.84;;;12.31;100.00
3590;BME280;1809;48.470;9.226;2023-04-28T06:27:36;141476.59;;;12.35;100.00
3590;BME280;1809;48.470;9.226;2023-04-28T06:30:01;140427.97;;;12.32;100.00
3590;BME280;1809;48.470;9.226;2023-04-28T06:32:27;138671.16;;;12.24;100.00
3590;BME280;1809;48.470;9.226;2023-04-28T06:34:52;137986.84;;;12.28;100.00
3590;BME280;1809;48.470;9.226;2023-04-28T06:37:17;137654.38;;;12.35;100.00
3590;BME280;1809;48.470;9.226;2023-04-28T06:39:43;137656.63;;;12.36;100.00
3590;BME280;1809;48.470;9.226;2023-04-28T06:42:08;138015.38;;;12.41;100.00
3590;BME280;1809;48.470;9.226;2023-04-28T06:44:33;137332.03;;;12.46;100.00
3590;BME280;1809;48.470;9.226;2023-04-28T06:46:59;135945.31;;;12.47;100.00
3590;BME280;1809;48.470;9.226;2023-04-28T06:49:24;135262.16;;;12.52;100.00
3590;BME280;1809;48.470;9.226;2023-04-28T06:51:50;134238.63;;;12.60;100.00
3590;BME280;1809;48.470;9.226;2023-04-28T06:54:15;133879.34;;;12.55;100.00
3590;BME280;1809;48.470;9.226;2023-04-28T06:56:43;134919.50;;;12.54;100.00
3590;BME280;1809;48.470;9.226;2023-04-28T06:59:09;135976.72;;;12.61;100.00
3590;BME280;1809;48.470;9.226;2023-04-28T07:01:34;136677.00;;;12.64;100.00
3590;BME280;1809;48.470;9.226;2023-04-28T07:03:59;137386.47;;;12.70;100.00
3590;BME280;1809;48.470;9.226;2023-04-28T07:06:25;138439.31;;;12.75;100.00
3590;BME280;1809;48.470;9.226;2023-04-28T07:08:52;138783.47;;;12.73;100.00
3590;BME280;1809;48.470;9.226;2023-04-28T07:11:17;139484.53;;;12.76;100.00
3590;BME280;1809;48.470;9.226;2023-04-28T07:13:42;138438.16;;;12.74;100.00
3590;BME280;1809;48.470;9.226;2023-04-28T07:16:10;138439.31;;;12.75;100.00
3590;BME280;1809;48.470;9.226;2023-04-28T07:18:35;138781.19;;;12.72;100.00
3590;BME280;1809;48.470;9.226;2023-04-28T07:21:01;139842.63;;;12.80;100.00
3590;BME280;1809;48.470;9.226;2023-04-28T07:23:26;140204.28;;;12.86;100.00
3590;BME280;1809;48.470;9.226;2023-04-28T07:25:51;139842.63;;;12.80;100.00
3590;BME280;1809;48.470;9.226;2023-04-28T07:28:17;140544.00;;;12.83;100.00
3590;BME280;1809;48.470;9.226;2023-04-28T07:30:42;140521.94;;;12.73;100.00
3590;BME280;1809;48.470;9.226;2023-04-28T07:33:07;141558.41;;;12.70;100.00
3590;BME280;1809;48.470;9.226;2023-04-28T07:35:33;142957.25;;;12.73;100.00
3590;BME280;1809;48.470;9.226;2023-04-28T07:37:58;144348.44;;;12.73;100.00
3590;BME280;1809;48.470;9.226;2023-04-28T07:40:26;145756.97;;;12.79;100.00
3590;BME280;1809;48.470;9.226;2023-04-28T07:42:51;147883.00;;;12.94;100.00
3590;BME280;1809;48.470;9.226;2023-04-28T07:45:17;148559.41;;;12.85;100.00
3590;BME280;1809;48.470;9.226;2023-04-28T07:47:42;149612.91;;;12.88;100.00
3590;BME280;1809;48.470;9.226;2023-04-28T07:50:09;149934.34;;;12.77;100.00
3590;BME280;1809;48.470;9.226;2023-04-28T07:52:35;150611.94;;;12.69;100.00
3590;BME280;1809;48.470;9.226;2023-04-28T07:55:01;151300.72;;;12.66;100.00
3590;BME280;1809;48.470;9.226;2023-04-28T07:57:27;151992.09;;;12.63;100.00
3590;BME280;1809;48.470;9.226;2023-04-28T07:59:53;152333.38;;;12.60;100.00
3590;BME280;1809;48.470;9.226;2023-04-28T08:02:19;152701.19;;;12.68;100.00
3590;BME280;1809;48.470;9.226;2023-04-28T08:04:45;152693.59;;;12.65;100.00
3590;BME280;1809;48.470;9.226;2023-04-28T08:07:10;152692.34;;;12.64;100.00
3590;BME280;1809;48.470;9.226;2023-04-28T08:09:36;152694.88;;;12.65;100.00
3590;BME280;1809;48.470;9.226;2023-04-28T08:12:02;153413.09;;;12.73;100.00
3590;BME280;1809;48.470;9.226;2023-04-28T08:14:27;154099.78;;;12.69;100.00
3590;BME280;1809;48.470;9.226;2023-04-28T08:16:53;154812.09;;;12.74;100.00
3590;BME280;1809;48.470;9.226;2023-04-28T08:19:19;155522.13;;;12.79;100.00
3590;BME280;1809;48.470;9.226;2023-04-28T08:21:44;155513.13;;;12.75;100.00
3590;BME280;1809;48.470;9.226;2023-04-28T08:24:10;156229.81;;;12.82;100.00
3590;BME280;1809;48.470;9.226;2023-04-28T08:26:36;157278.06;;;12.82;100.00
3590;BME280;1809;48.470;9.226;2023-04-28T08:29:02;157987.50;;;12.86;100.00
3590;BME280;1809;48.470;9.226;2023-04-28T08:31:28;157986.34;;;12.85;100.00
3590;BME280;1809;48.470;9.226;2023-04-28T08:33:53;157998.09;;;12.89;100.00
3590;BME280;1809;48.470;9.226;2023-04-28T08:36:18;157998.09;;;12.89;100.00
3590;BME280;1809;48.470;9.226;2023-04-28T08:38:45;157991.53;;;12.87;100.00
3590;BME280;1809;48.470;9.226;2023-04-28T08:41:12;158020.38;;;12.98;100.00
3590;BME280;1809;48.470;9.226;2023-04-28T08:43:39;158034.75;;;13.04;100.00
3590;BME280;1809;48.470;9.226;2023-04-28T08:46:07;158045.19;;;13.08;100.00
3590;BME280;1809;48.470;9.226;2023-04-28T08:48:43;158067.53;;;13.16;100.00
3590;BME280;1809;48.470;9.226;2023-04-28T08:51:15;158109.47;;;13.32;100.00
3590;BME280;1809;48.470;9.226;2023-04-28T08:53:45;158136.91;;;13.43;100.00
3590;BME280;1809;48.470;9.226;2023-04-28T08:56:14;158147.41;;;13.47;100.00
3590;BME280;1809;48.470;9.226;2023-04-28T08:58:41;158164.44;;;13.54;100.00
3590;BME280;1809;48.470;9.226;2023-04-28T09:01:07;158170.97;;;13.56;100.00
3590;BME280;1809;48.470;9.226;2023-04-28T09:03:33;158173.63;;;13.57;100.00
3590;BME280;1809;48.470;9.226;2023-04-28T09:05:58;158189.31;;;13.63;100.00
3590;BME280;1809;48.470;9.226;2023-04-28T09:08:23;158212.91;;;13.72;100.00
3590;BME280;1809;48.470;9.226;2023-04-28T09:11:08;158177.53;;;13.59;100.00
3590;BME280;1809;48.470;9.226;2023-04-28T09:13:34;158190.59;;;13.64;100.00
3590;BME280;1809;48.470;9.226;2023-04-28T09:16:00;158205.03;;;13.69;100.00
3590;BME280;1809;48.470;9.226;2023-04-28T09:18:27;158229.94;;;13.79;100.00
3590;BME280;1809;48.470;9.226;2023-04-28T09:21:07;158256.09;;;13.89;100.00
3590;BME280;1809;48.470;9.226;2023-04-28T09:23:46;158243.00;;;13.84;100.00
3590;BME280;1809;48.470;9.226;2023-04-28T09:26:13;158215.50;;;13.73;100.00
3590;BME280;1809;48.470;9.226;2023-04-28T09:28:38;158212.91;;;13.72;100.00
3590;BME280;1809;48.470;9.226;2023-04-28T09:31:04;158250.88;;;13.87;100.00
3590;BME280;1809;48.470;9.226;2023-04-28T09:33:29;158273.13;;;13.95;100.00
3590;BME280;1809;48.470;9.226;2023-04-28T09:35:54;158288.84;;;14.01;100.00
3590;BME280;1809;48.470;9.226;2023-04-28T09:38:21;158316.38;;;14.12;100.00
3590;BME280;1809;48.470;9.226;2023-04-28T09:45:51;158425.16;;;14.54;100.00
3590;BME280;1809;48.470;9.226;2023-04-28T09:48:25;158464.53;;;14.69;100.00
3590;BME280;1809;48.470;9.226;2023-04-28T09:50:52;158490.69;;;14.79;100.00
3590;BME280;1809;48.470;9.226;2023-04-28T09:53:21;158505.16;;;14.85;100.00
3590;BME280;1809;48.470;9.226;2023-04-28T09:55:47;158545.78;;;15.00;100.00
3590;BME280;1809;48.470;9.226;2023-04-28T09:58:15;158533.97;;;14.96;100.00
3590;BME280;1809;48.470;9.226;2023-04-28T10:00:43;158558.88;;;15.05;100.00
3590;BME280;1809;48.470;9.226;2023-04-28T10:03:09;158608.72;;;15.25;100.00
3590;BME280;1809;48.470;9.226;2023-04-28T10:05:35;158637.53;;;15.36;100.00
3590;BME280;1809;48.470;9.226;2023-04-28T10:08:04;158624.44;;;15.31;100.00
3590;BME280;1809;48.470;9.226;2023-04-28T10:10:30;158728.09;;;15.71;100.00
3590;BME280;1809;48.470;9.226;2023-04-28T10:12:55;157688.75;;;15.77;100.00
3590;BME280;1809;48.470;9.226;2023-04-28T10:15:22;153835.59;;;15.80;100.00
3590;BME280;1809;48.470;9.226;2023-04-28T10:17:49;153184.56;;;16.00;100.00
3590;BME280;1809;48.470;9.226;2023-04-28T10:20:15;151148.66;;;16.28;100.00
3590;BME280;1809;48.470;9.226;2023-04-28T10:25:30;145260.38;;;16.58;100.00
3590;BME280;1809;48.470;9.226;2023-04-28T10:27:57;140659.31;;;16.37;100.00
3590;BME280;1809;48.470;9.226;2023-04-28T10:30:24;141034.69;;;16.48;100.00
3590;BME280;1809;48.470;9.226;2023-04-28T10:38:06;134130.00;;;16.88;100.00
3590;BME280;1809;48.470;9.226;2023-04-28T10:40:36;130979.63;;;16.85;100.00
3590;BME280;1809;48.470;9.226;2023-04-28T10:43:03;132740.00;;;16.91;100.00
3590;BME280;1809;48.470;9.226;2023-04-28T10:48:13;133493.63;;;17.16;100.00
3590;BME280;1809;48.470;9.226;2023-04-28T10:56:25;134471.78;;;16.84;100.00
3590;BME280;1809;48.470;9.226;2023-04-28T10:58:55;135562.72;;;17.03;100.00
3590;BME280;1809;48.470;9.226;2023-04-28T11:06:22;136632.22;;;17.12;100.00
3590;BME280;1809;48.470;9.226;2023-04-28T11:08:49;135578.34;;;17.10;100.00
3590;BME280;1809;48.470;9.226;2023-04-28T11:11:17;140198.31;;;17.41;100.00
3590;BME280;1809;48.470;9.226;2023-04-28T11:13:43;137400.94;;;17.43;100.00
3590;BME280;1809;48.470;9.226;2023-04-28T11:16:13;131844.69;;;17.62;100.00
3590;BME280;1809;48.470;9.226;2023-04-28T11:21:18;120075.06;;;18.13;100.00
3590;BME280;1809;48.470;9.226;2023-04-28T11:23:45;110004.25;;;18.30;100.00
3590;BME280;1809;48.470;9.226;2023-04-28T11:26:10;96816.56;;;18.35;100.00
3590;BME280;1809;48.470;9.226;2023-04-28T11:28:45;103067.69;;;18.39;100.00
3590;BME280;1809;48.470;9.226;2023-04-28T11:31:11;116373.66;;;18.84;100.00
3590;BME280;1809;48.470;9.226;2023-04-28T11:33:37;82711.66;;;18.92;100.00
3590;BME280;1809;48.470;9.226;2023-04-28T11:36:04;32615.72;;;18.51;100.00
3590;BME280;1809;48.470;9.226;2023-04-28T11:38:29;36010.44;;;18.35;100.00
3590;BME280;1809;48.470;9.226;2023-04-28T11:40:58;37025.22;;;18.23;100.00
3590;BME280;1809;48.470;9.226;2023-04-28T11:43:28;39411.25;;;18.25;100.00
3590;BME280;1809;48.470;9.226;2023-04-28T11:45:54;67453.31;;;18.09;100.00
3590;BME280;1809;48.470;9.226;2023-04-28T11:48:20;61307.31;;;18.42;100.00
3590;BME280;1809;48.470;9.226;2023-04-28T11:50:46;50349.03;;;18.45;100.00
3590;BME280;1809;48.470;9.226;2023-04-28T11:53:11;36701.13;;;18.51;100.00
3590;BME280;1809;48.470;9.226;2023-04-28T11:55:36;24130.41;;;18.75;100.00
3590;BME280;1809;48.470;9.226;2023-04-28T11:58:21;6889.94;;;18.96;100.00
3590;BME280;1809;48.470;9.226;2023-04-28T12:01:07;-16270.13;;;19.54;100.00
3590;BME280;1809;48.470;9.226;2023-04-28T12:03:40;-16722.00;;;19.88;100.00
3590;BME280;1809;48.470;9.226;2023-04-28T12:06:06;-16729.97;;;20.16;100.00
3590;BME280;1809;48.470;9.226;2023-04-28T12:08:31;-16714.03;;;19.59;100.00
3590;BME280;1809;48.470;9.226;2023-04-28T12:11:09;-16711.50;;;19.50;100.00
3590;BME280;1809;48.470;9.226;2023-04-28T12:13:37;-16706.47;;;19.31;100.00
3590;BME280;1809;48.470;9.226;2023-04-28T12:16:04;-16705.34;;;19.27;100.00
3590;BME280;1809;48.470;9.226;2023-04-28T12:18:59;-14888.91;;;19.28;100.00
3590;BME280;1809;48.470;9.226;2023-04-28T12:21:24;-16707.88;;;19.37;100.00
3590;BME280;1809;48.470;9.226;2023-04-28T12:23:49;-16711.66;;;19.50;100.00
3590;BME280;1809;48.470;9.226;2023-04-28T12:26:23;-16720.31;;;19.81;100.00
3590;BME280;1809;48.470;9.226;2023-04-28T12:28:49;-16724.78;;;19.98;100.00
3590;BME280;1809;48.470;9.226;2023-04-28T12:31:14;-16724.09;;;19.95;100.00
3590;BME280;1809;48.470;9.226;2023-04-28T12:33:40;-16719.06;;;19.77;100.00
3590;BME280;1809;48.470;9.226;2023-04-28T12:36:05;-16716.81;;;19.69;100.00
3590;BME280;1809;48.470;9.226;2023-04-28T12:38:31;-16722.69;;;19.90;100.00
3590;BME280;1809;48.470;9.226;2023-04-28T12:40:57;-16722.41;;;19.89;100.00
3590;BME280;1809;48.470;9.226;2023-04-28T12:43:23;-16732.06;;;20.24;100.00
3590;BME280;1809;48.470;9.226;2023-04-28T12:45:50;-16730.38;;;20.18;100.00
3590;BME280;1809;48.470;9.226;2023-04-28T12:48:17;-16731.63;;;20.22;100.00
3590;BME280;1809;48.470;9.226;2023-04-28T12:50:42;-16726.88;;;20.05;100.00
3590;BME280;1809;48.470;9.226;2023-04-28T12:53:07;-16715.69;;;19.65;100.00
3590;BME280;1809;48.470;9.226;2023-04-28T12:55:33;-16721.44;;;19.85;100.00
3590;BME280;1809;48.470;9.226;2023-04-28T12:57:58;-16725.91;;;20.02;100.00
3590;BME280;1809;48.470;9.226;2023-04-28T13:00:23;-16727.16;;;20.06;100.00
3590;BME280;1809;48.470;9.226;2023-04-28T13:02:49;-16730.81;;;20.19;100.00
3590;BME280;1809;48.470;9.226;2023-04-28T13:05:15;-16730.09;;;20.17;100.00
3590;BME280;1809;48.470;9.226;2023-04-28T13:07:41;-16729.97;;;20.16;100.00
3590;BME280;1809;48.470;9.226;2023-04-28T13:10:07;-16723.53;;;19.93;100.00
3590;BME280;1809;48.470;9.226;2023-04-28T13:12:33;-16724.38;;;19.96;100.00
3590;BME280;1809;48.470;9.226;2023-04-28T13:15:01;-16726.03;;;20.02;100.00
3590;BME280;1809;48.470;9.226;2023-04-28T13:17:27;-16724.38;;;19.96;100.00
3590;BME280;1809;48.470;9.226;2023-04-28T13:19:53;-16718.22;;;19.74;100.00
3590;BME280;1809;48.470;9.226;2023-04-28T13:22:18;-16722.97;;;19.91;100.00
3590;BME280;1809;48.470;9.226;2023-04-28T13:24:46;-16731.91;;;20.23;100.00
3590;BME280;1809;48.470;9.226;2023-04-28T13:27:11;-6460.41;;;20.23;100.00
3590;BME280;1809;48.470;9.226;2023-04-28T13:29:36;17729.63;;;20.33;100.00